Terminal Aerodrome Forecast
Issued by NWS

Home | Current Version | Previous Version | Text Only | Print | Product List | Glossary On
Versions: 1 2 3 4 5 6 7 8 9 10 11 12 13 14 15
000
FTUS44 KBMX 230135 AAA
TAFMGM
TAF AMD
KMGM 230135Z 2302/2324 14004KT P6SM RA SCT040 BKN060 OVC080
      TEMPO 2302/2304 2SM +RA OVC045
     FM230500 13009KT 3SM RA BR OVC025
     FM230900 25007KT 4SM -RA BR OVC008
     FM231300 29008KT P6SM OVC015=

USA.gov is the U.S. government's official web portal to all federal, state and local government web resources and services.